Time;durP1;ratioP1;P1;durP2;ratioP2;P2;SDS_P1;SDS_P2;PMS_P1;PMS_P2;Temp;Humidity;BMP_temperature;BMP_pressure;BME280_temperature;BME280_humidity;BME280_pressure;Samples;Min_cycle;Max_cycle;Signal;HPM_P1;HPM_P2
2023/10/01 00:13:54;;;;;;;12.63;4.78;;;;;;;10.61;67.04;101048.00;31213519;28;96717;-75
2023/10/01 00:28:56;;;;;;;12.35;4.45;;;;;;;10.50;67.19;101031.22;31228827;28;113255;-72
2023/10/01 00:44:00;;;;;;;13.97;5.20;;;;;;;10.34;67.13;101041.66;31225695;28;97362;-76
2023/10/01 00:59:00;;;;;;;;;;;;;;;10.37;68.03;101028.06;31225895;27;97190;-73
2023/10/01 01:14:01;;;;;;;14.50;5.30;;;;;;;10.54;68.39;101030.91;31225087;28;97144;-76
2023/10/01 01:29:17;;;;;;;13.00;4.45;;;;;;;10.53;68.04;101029.25;31221459;27;97834;-75
2023/10/01 01:44:19;;;;;;;12.60;4.80;;;;;;;10.48;68.43;101003.91;31221235;28;97380;-76
2023/10/01 01:59:21;;;;;;;10.43;5.10;;;;;;;10.25;68.02;101010.56;31219462;27;96686;-71
2023/10/01 02:14:30;;;;;;;16.67;5.80;;;;;;;10.16;68.96;101002.47;31219101;28;97108;-77
2023/10/01 02:29:45;;;;;;;16.80;5.93;;;;;;;10.26;68.93;100993.63;31216934;28;97840;-78
2023/10/01 02:44:47;;;;;;;13.93;5.63;;;;;;;10.18;69.45;101007.66;31213067;28;97686;-76
2023/10/01 03:30:21;;;;;;;10.30;4.87;;;;;;;10.25;69.82;100991.94;31203845;28;96719;-74
2023/10/01 03:45:38;;;;;;;9.17;3.80;;;;;;;10.35;69.72;100998.09;31210959;27;97392;-72
2023/10/01 04:15:46;;;;;;;12.80;3.83;;;;;;;10.69;69.85;101007.25;31247954;28;96720;-68
2023/10/01 04:30:51;;;;;;;9.50;3.60;;;;;;;10.95;69.02;101005.53;31245514;28;98423;-70
2023/10/01 04:45:52;;;;;;;10.60;3.27;;;;;;;11.06;69.27;100992.94;31243909;27;97126;-68
2023/10/01 05:00:55;;;;;;;5.30;3.07;;;;;;;11.20;69.26;101012.91;31234631;27;97771;-63
2023/10/01 05:15:58;;;;;;;8.23;3.27;;;;;;;11.36;68.15;101010.38;31219816;28;97127;-74
2023/10/01 05:30:59;;;;;;;10.07;3.17;;;;;;;11.58;68.33;101005.53;31218463;28;97380;-66
2023/10/01 05:46:01;;;;;;;7.70;2.47;;;;;;;11.82;68.12;101012.81;31218974;27;97551;-73
2023/10/01 06:01:05;;;;;;;6.00;2.60;;;;;;;12.18;67.84;101010.03;31217188;28;97582;-75
2023/10/01 06:16:16;;;;;;;7.93;2.53;;;;;;;12.43;67.10;101010.94;31216395;27;97719;-74
2023/10/01 06:31:16;;;;;;;10.97;3.30;;;;;;;12.83;66.71;101006.69;31214785;28;96745;-65
2023/10/01 06:46:28;;;;;;;6.63;2.95;;;;;;;13.58;66.40;100990.66;31211926;28;107903;-63
2023/10/01 07:01:42;;;;;;;6.60;2.77;;;;;;;14.29;65.21;101014.88;31211133;28;96759;-63
2023/10/01 07:16:44;;;;;;;6.27;2.27;;;;;;;15.20;63.53;101020.53;31210477;28;97247;-64
2023/10/01 07:31:45;;;;;;;6.40;1.83;;;;;;;16.65;61.07;101027.34;31209211;27;97224;-66
2023/10/01 07:46:46;;;;;;;5.23;1.50;;;;;;;18.04;58.09;101025.22;31206379;28;98021;-63
2023/10/01 08:01:59;;;;;;;4.60;1.50;;;;;;;18.69;55.28;101035.66;31206244;28;96817;-66
2023/10/01 08:17:03;;;;;;;3.53;1.30;;;;;;;19.15;53.29;101010.66;31205420;28;97102;-67
2023/10/01 08:32:09;;;;;;;4.67;1.40;;;;;;;19.82;51.28;101017.88;31204134;27;96957;-64
2023/10/01 08:47:59;;;;;;;7.70;2.47;;;;;;;21.32;47.28;101013.16;31224798;27;97501;-70
2023/10/01 09:02:39;;;;;;;4.13;1.27;;;;;;;21.69;45.09;101013.25;31210562;28;97207;-65
2023/10/01 09:17:56;;;;;;;5.63;1.60;;;;;;;21.45;43.95;101007.63;31219983;28;97550;-74
2023/10/01 09:33:04;;;;;;;6.43;1.73;;;;;;;23.04;41.18;101013.25;31218304;28;97443;-68
2023/10/01 09:48:23;;;;;;;6.20;2.00;;;;;;;23.23;39.85;101009.38;31217153;27;96852;-64
2023/10/01 10:03:38;;;;;;;6.63;1.80;;;;;;;23.13;39.99;101001.81;31216091;28;97232;-69
2023/10/01 10:19:22;;;;;;;8.83;2.10;;;;;;;24.46;37.37;101002.25;31214934;28;96817;-66
2023/10/01 10:34:22;;;;;;;9.67;1.90;;;;;;;25.53;35.78;100972.44;31212363;28;97014;-68
2023/10/01 10:49:48;;;;;;;5.30;1.60;;;;;;;26.21;33.76;100972.25;31211486;27;97352;-64
2023/10/01 11:04:49;;;;;;;6.47;1.50;;;;;;;26.67;31.45;100964.50;31210266;28;97408;-67
2023/10/01 11:19:58;;;;;;;4.10;1.50;;;;;;;26.96;30.91;100958.78;31209708;28;96663;-64
2023/10/01 11:35:01;;;;;;;4.27;1.17;;;;;;;26.64;31.16;100951.38;31209015;28;97205;-63
2023/10/01 11:50:08;;;;;;;6.30;1.50;;;;;;;30.19;27.19;100922.97;31207339;27;96797;-64
2023/10/01 12:05:13;;;;;;;6.63;1.73;;;;;;;30.44;26.56;100921.16;31205634;27;97380;-70
2023/10/01 12:20:22;;;;;;;4.33;1.30;;;;;;;41.27;17.33;100915.31;31225613;28;97540;-63
2023/10/01 12:35:28;;;;;;;5.27;1.70;;;;;;;47.09;12.90;100910.47;31225363;28;97353;-69
2023/10/01 12:50:28;;;;;;;5.50;1.30;;;;;;;49.99;10.96;100900.75;31224348;27;96873;-64
2023/10/01 13:05:43;;;;;;;5.32;1.35;;;;;;;52.87;9.26;100888.53;31222871;28;97732;-67
2023/10/01 13:35:57;;;;;;;5.63;1.83;;;;;;;41.42;13.74;100844.59;31214089;28;97533;-65
2023/10/01 14:21:42;;;;;;;6.07;1.40;;;;;;;28.99;23.73;100839.47;31216430;28;97676;-71
2023/10/01 14:36:46;;;;;;;4.28;1.48;;;;;;;26.77;26.55;100831.81;31194065;27;99081;-70
2023/10/01 14:51:49;;;;;;;4.60;1.33;;;;;;;25.01;28.84;100823.66;31213949;27;97159;-70
2023/10/01 15:06:57;;;;;;;5.43;1.60;;;;;;;23.56;30.91;100803.22;31210426;28;96841;-66
2023/10/01 15:22:08;;;;;;;2.97;1.20;;;;;;;22.99;31.95;100816.44;31207572;28;97416;-62
2023/10/01 15:37:11;;;;;;;2.97;1.30;;;;;;;21.88;33.68;100822.34;31206799;28;97576;-69
2023/10/01 15:52:12;;;;;;;4.30;1.90;;;;;;;20.88;35.37;100831.66;31204903;27;97231;-65
2023/10/01 16:07:12;;;;;;;;;;;;;;;20.22;36.97;100821.13;31206031;28;97508;-65
2023/10/01 16:22:20;;;;;;;6.22;1.75;;;;;;;19.91;37.72;100824.66;31205790;28;99018;-66
2023/10/01 16:37:21;;;;;;;8.00;1.83;;;;;;;19.49;39.11;100821.47;31203883;28;96808;-63
2023/10/01 16:52:23;;;;;;;;;;;;;;;19.24;39.93;100850.03;31202700;27;98094;-66
2023/10/01 17:07:24;;;;;;;7.27;2.30;;;;;;;19.05;40.72;100853.59;31223429;28;96706;-62
2023/10/01 17:22:24;;;;;;;6.07;2.03;;;;;;;18.75;42.08;100862.94;31219472;28;97622;-71
2023/10/01 17:37:25;;;;;;;4.95;1.70;;;;;;;18.47;43.26;100865.84;31200710;28;97591;-62
2023/10/01 17:52:25;;;;;;;6.35;2.45;;;;;;;18.19;43.90;100853.38;31217602;28;98560;-67
2023/10/01 18:07:29;;;;;;;9.18;3.67;;;;;;;17.78;44.81;100843.44;31217329;27;97827;-64
2023/10/01 18:22:29;;;;;;;10.73;2.93;;;;;;;17.13;45.96;100870.69;31214961;28;96879;-63
2023/10/01 18:37:35;;;;;;;6.40;2.60;;;;;;;16.80;46.25;100851.56;31214126;28;111146;-64
2023/10/01 18:52:36;;;;;;;6.77;3.83;;;;;;;16.56;46.11;100864.41;31211855;27;97022;-64
2023/10/01 19:07:41;;;;;;;8.80;4.30;;;;;;;16.35;46.52;100865.28;31211057;28;96813;-66
2023/10/01 19:22:47;;;;;;;8.53;3.83;;;;;;;16.29;46.56;100849.88;31207548;27;97504;-67
2023/10/01 19:37:52;;;;;;;7.07;2.60;;;;;;;16.06;47.27;100850.88;31205894;28;96775;-64
2023/10/01 19:52:54;;;;;;;6.73;2.33;;;;;;;15.84;48.20;100848.19;31207467;28;97593;-64
2023/10/01 20:07:57;;;;;;;4.73;2.40;;;;;;;15.63;48.81;100853.47;31207192;28;96712;-63
2023/10/01 20:22:58;;;;;;;;;;;;;;;15.27;49.38;100860.44;31206904;28;97180;-63
2023/10/01 20:37:59;;;;;;;8.93;2.77;;;;;;;15.04;50.38;100858.66;31222064;27;97509;-63
2023/10/01 20:53:00;;;;;;;6.85;3.30;;;;;;;15.11;50.79;100866.81;31224799;27;98090;-66
2023/10/01 21:08:11;;;;;;;9.03;4.07;;;;;;;15.20;51.56;100867.56;31224063;28;96993;-69
2023/10/01 21:23:14;;;;;;;9.37;3.73;;;;;;;15.17;51.63;100858.03;31220587;28;96764;-74
2023/10/01 21:38:21;;;;;;;8.93;3.87;;;;;;;15.12;52.79;100854.22;31221045;28;96666;-65
2023/10/01 21:53:34;;;;;;;14.03;5.03;;;;;;;15.39;53.25;100847.34;31221643;27;97110;-66
2023/10/01 22:08:38;;;;;;;10.27;4.70;;;;;;;15.38;53.14;100872.56;31219643;28;96748;-65
2023/10/01 22:23:39;;;;;;;7.73;3.90;;;;;;;15.18;53.63;100865.03;31216624;28;97774;-71
2023/10/01 22:38:49;;;;;;;10.73;4.35;;;;;;;15.29;54.01;100865.63;31216844;28;97210;-70
2023/10/01 22:53:50;;;;;;;6.77;3.73;;;;;;;15.28;54.72;100859.44;31212462;27;97963;-65
2023/10/01 23:08:51;;;;;;;14.07;5.45;;;;;;;15.07;55.80;100857.44;31215260;28;96945;-73
2023/10/01 23:23:55;;;;;;;8.65;3.40;;;;;;;15.19;56.45;100853.28;31213200;28;96800;-76
2023/10/01 23:38:55;;;;;;;7.77;2.73;;;;;;;15.37;57.24;100863.66;31211988;28;97133;-73
2023/10/01 23:53:56;;;;;;;9.15;3.58;;;;;;;15.82;56.67;100862.81;31209759;28;96783;-75
